Time;durP1;ratioP1;P1;durP2;ratioP2;P2;SDS_P1;SDS_P2;PMS_P1;PMS_P2;Temp;Humidity;BMP_temperature;BMP_pressure;BME280_temperature;BME280_humidity;BME280_pressure;Samples;Min_cycle;Max_cycle;Signal;HPM_P1;HPM_P2
2022/05/01 00:04:13;;;;;;;5.80;3.28;;;12.40;81.80;;;;;;10434164;28;20044;-59
2022/05/01 00:09:14;;;;;;;5.03;3.10;;;12.40;81.80;;;;;;10447905;28;20059;-58
2022/05/01 00:14:15;;;;;;;5.75;3.63;;;12.30;81.80;;;;;;10447185;28;20040;-59
2022/05/01 00:19:16;;;;;;;6.28;3.72;;;12.30;81.90;;;;;;10429516;28;20026;-58
2022/05/01 00:24:16;;;;;;;4.10;3.00;;;12.30;81.90;;;;;;10448145;28;20385;-56
2022/05/01 00:29:17;;;;;;;6.30;3.38;;;12.30;81.90;;;;;;10447841;28;20086;-59
2022/05/01 00:39:37;;;;;;;7.03;3.40;;;12.30;81.90;;;;;;10447445;28;20060;-58
2022/05/01 00:44:39;;;;;;;5.03;2.85;;;12.30;82.00;;;;;;10447146;28;20264;-58
2022/05/01 00:49:39;;;;;;;4.72;3.33;;;12.30;82.00;;;;;;10447283;28;20029;-58
2022/05/01 00:54:43;;;;;;;5.68;3.33;;;12.30;82.00;;;;;;10447572;28;20025;-54
2022/05/01 00:59:46;;;;;;;5.25;3.55;;;12.30;82.10;;;;;;10446337;28;20445;-55
2022/05/01 01:04:47;;;;;;;4.20;3.00;;;12.20;82.00;;;;;;10445810;28;20033;-54
2022/05/01 01:09:47;;;;;;;6.55;3.50;;;12.20;82.10;;;;;;10445167;28;20045;-60
2022/05/01 01:14:48;;;;;;;5.45;3.03;;;12.20;82.10;;;;;;10457418;28;20110;-57
2022/05/01 01:19:48;;;;;;;4.97;3.67;;;12.20;82.70;;;;;;10446534;28;20559;-56
2022/05/01 01:24:49;;;;;;;6.22;3.03;;;12.20;82.10;;;;;;10445767;28;20495;-57
2022/05/01 01:35:15;;;;;;;5.35;3.60;;;12.20;82.10;;;;;;10445541;28;20052;-59
2022/05/01 01:40:22;;;;;;;4.90;3.60;;;12.20;82.20;;;;;;10445637;28;20025;-57
2022/05/01 01:45:23;;;;;;;5.18;3.35;;;12.20;82.20;;;;;;10443240;28;20033;-56
2022/05/01 01:50:24;;;;;;;5.07;3.25;;;12.20;82.30;;;;;;10444859;28;20029;-58
2022/05/01 01:55:25;;;;;;;5.95;3.28;;;12.10;82.20;;;;;;10444293;28;20032;-55
2022/05/01 02:00:26;;;;;;;6.65;3.58;;;12.10;82.20;;;;;;10441085;28;20037;-57
2022/05/01 02:05:27;;;;;;;5.13;3.45;;;12.10;82.30;;;;;;10444500;28;20044;-58
2022/05/01 02:10:28;;;;;;;5.22;3.25;;;12.10;82.30;;;;;;10443943;28;20317;-59
2022/05/01 02:15:32;;;;;;;4.95;3.35;;;12.10;82.30;;;;;;10444387;28;20593;-56
2022/05/01 02:25:53;;;;;;;4.93;3.55;;;12.10;82.40;;;;;;10442288;28;21019;-55
2022/05/01 02:30:54;;;;;;;5.93;3.22;;;12.10;82.60;;;;;;10444227;28;20112;-58
2022/05/01 02:35:55;;;;;;;6.32;3.70;;;12.10;82.40;;;;;;10443807;28;20037;-55
2022/05/01 02:40:55;;;;;;;5.05;3.30;;;12.10;82.50;;;;;;10443733;28;20060;-55
2022/05/01 02:45:56;;;;;;;6.57;3.90;;;12.00;82.40;;;;;;10443684;28;20384;-57
2022/05/01 02:50:57;;;;;;;5.32;3.65;;;12.00;82.50;;;;;;10442135;28;20075;-55
2022/05/01 02:56:00;;;;;;;5.78;3.88;;;12.00;82.50;;;;;;10443414;28;20052;-58
2022/05/01 03:01:01;;;;;;;5.88;3.88;;;12.00;82.60;;;;;;10443479;28;20104;-59
2022/05/01 03:06:01;;;;;;;5.85;3.90;;;12.00;82.60;;;;;;10448239;28;20037;-56
2022/05/01 03:11:02;;;;;;;7.53;3.80;;;12.00;82.60;;;;;;10451844;28;20135;-52
2022/05/01 03:16:04;;;;;;;6.15;3.78;;;12.00;82.70;;;;;;10452154;28;20047;-55
2022/05/01 03:26:25;;;;;;;5.80;3.92;;;12.00;82.70;;;;;;10451603;28;20044;-58
2022/05/01 03:31:27;;;;;;;6.50;3.63;;;11.90;82.70;;;;;;10451017;28;20033;-55
2022/05/01 03:36:27;;;;;;;6.05;3.85;;;11.90;82.70;;;;;;10450581;28;20037;-56
2022/05/01 03:41:28;;;;;;;5.63;3.83;;;11.90;82.80;;;;;;10450437;28;20048;-55
2022/05/01 03:46:29;;;;;;;6.85;4.82;;;11.90;82.80;;;;;;10449895;28;20506;-54
2022/05/01 03:51:33;;;;;;;5.20;3.90;;;11.90;82.80;;;;;;10449516;28;20021;-56
2022/05/01 03:56:34;;;;;;;5.82;4.03;;;11.90;82.90;;;;;;10449620;28;20483;-58
2022/05/01 04:01:34;;;;;;;5.45;3.92;;;11.90;82.90;;;;;;10449515;28;20021;-58
2022/05/01 04:06:35;;;;;;;5.93;4.03;;;11.90;83.00;;;;;;10448966;28;20384;-53
2022/05/01 04:11:36;;;;;;;9.68;4.35;;;11.90;83.00;;;;;;10448784;28;20041;-56
2022/05/01 04:16:36;;;;;;;5.63;3.95;;;11.80;82.90;;;;;;10447899;28;20403;-57
2022/05/01 04:21:37;;;;;;;6.10;4.10;;;11.80;83.00;;;;;;10462455;28;20122;-57
2022/05/01 04:26:38;;;;;;;8.27;4.35;;;11.90;83.10;;;;;;10448012;28;20037;-57
2022/05/01 04:31:39;;;;;;;6.78;4.35;;;11.80;83.00;;;;;;10448043;28;20491;-60
2022/05/01 04:36:41;;;;;;;8.18;3.90;;;11.80;83.00;;;;;;10447807;28;20044;-59
2022/05/01 04:41:41;;;;;;;8.40;4.47;;;11.80;83.00;;;;;;10447226;28;20028;-58
2022/05/01 04:46:43;;;;;;;7.20;4.00;;;11.80;83.00;;;;;;10446268;28;20040;-58
2022/05/01 04:51:44;;;;;;;7.03;4.70;;;11.80;83.00;;;;;;10447380;28;20403;-58
2022/05/01 05:02:05;;;;;;;6.53;4.25;;;11.80;82.90;;;;;;10444608;28;20098;-58
2022/05/01 05:07:06;;;;;;;6.88;4.40;;;11.80;82.90;;;;;;10447140;28;20093;-56
2022/05/01 05:12:09;;;;;;;8.05;4.75;;;11.80;82.90;;;;;;10444461;28;20053;-59
2022/05/01 05:17:10;;;;;;;8.82;4.68;;;11.80;82.90;;;;;;10446714;28;20072;-61
2022/05/01 05:22:11;;;;;;;7.53;4.53;;;11.80;82.90;;;;;;10446493;28;20201;-51
2022/05/01 05:27:13;;;;;;;6.90;4.57;;;11.70;82.90;;;;;;10445036;28;20449;-59
2022/05/01 05:32:14;;;;;;;7.20;5.00;;;11.70;82.90;;;;;;10444685;28;20020;-59
2022/05/01 05:37:16;;;;;;;7.13;4.45;;;11.80;82.90;;;;;;10443085;28;20419;-59
2022/05/01 05:42:18;;;;;;;9.27;4.82;;;11.80;82.90;;;;;;10445577;28;20083;-57
2022/05/01 05:47:18;;;;;;;6.40;4.40;;;11.80;82.90;;;;;;10444893;28;20032;-51
2022/05/01 05:52:19;;;;;;;6.82;4.80;;;11.70;82.90;;;;;;10445333;28;20021;-57
2022/05/01 05:57:20;;;;;;;10.38;4.70;;;11.80;83.00;;;;;;10444076;28;20528;-59
2022/05/01 06:02:21;;;;;;;8.23;4.78;;;11.80;82.90;;;;;;10445080;28;20108;-59
2022/05/01 06:07:21;;;;;;;7.95;4.78;;;11.70;82.90;;;;;;10444090;28;20036;-57
2022/05/01 06:12:22;;;;;;;7.85;5.25;;;11.70;82.90;;;;;;10444681;28;20349;-58
2022/05/01 06:17:23;;;;;;;8.02;5.00;;;11.70;83.50;;;;;;10444322;28;20460;-58
2022/05/01 06:22:23;;;;;;;7.80;5.30;;;11.70;82.90;;;;;;10443466;28;20025;-63
2022/05/01 06:27:24;;;;;;;7.85;4.82;;;11.70;82.90;;;;;;10444176;28;20040;-60
2022/05/01 06:32:25;;;;;;;7.57;5.18;;;11.80;82.90;;;;;;10441833;28;20062;-55
2022/05/01 06:37:26;;;;;;;7.20;4.82;;;11.80;82.80;;;;;;10440615;28;20391;-54
2022/05/01 06:42:27;;;;;;;8.45;4.88;;;11.90;82.70;;;;;;10445852;28;20025;-58
2022/05/01 06:47:27;;;;;;;8.38;4.90;;;11.90;82.50;;;;;;10445840;28;20120;-56
2022/05/01 06:52:28;;;;;;;6.60;4.88;;;12.00;82.30;;;;;;10452358;28;20080;-54
2022/05/01 06:57:29;;;;;;;7.25;4.97;;;12.10;82.20;;;;;;10452143;28;20028;-56
2022/05/01 07:02:29;;;;;;;9.63;5.13;;;12.10;82.10;;;;;;10451874;28;20017;-54
2022/05/01 07:07:30;;;;;;;6.95;4.43;;;12.20;82.10;;;;;;10451002;28;20527;-58
2022/05/01 07:12:31;;;;;;;7.85;4.50;;;12.20;82.00;;;;;;10460640;28;20144;-58
2022/05/01 07:17:32;;;;;;;6.82;4.47;;;12.20;81.90;;;;;;10451016;28;20045;-58
2022/05/01 07:22:33;;;;;;;9.00;4.82;;;12.20;81.90;;;;;;10450922;28;20082;-59
2022/05/01 07:27:34;;;;;;;8.40;4.72;;;12.20;81.90;;;;;;10432199;28;20033;-59
2022/05/01 07:32:34;;;;;;;8.38;5.00;;;12.20;81.90;;;;;;10450484;28;20037;-58
2022/05/01 07:37:35;;;;;;;6.82;4.72;;;12.20;81.90;;;;;;10450651;28;20025;-55
2022/05/01 07:42:36;;;;;;;7.43;4.95;;;12.20;81.90;;;;;;10450151;28;20091;-59
2022/05/01 07:47:37;;;;;;;6.40;4.40;;;12.30;81.90;;;;;;10449703;28;20083;-58
2022/05/01 07:52:37;;;;;;;6.30;4.20;;;12.30;81.90;;;;;;10448952;28;20035;-66
2022/05/01 07:57:38;;;;;;;7.55;4.93;;;12.30;81.70;;;;;;10449421;28;20018;-65
2022/05/01 08:07:58;;;;;;;7.72;4.68;;;12.40;81.60;;;;;;10446849;28;20397;-60
2022/05/01 08:12:59;;;;;;;7.10;4.47;;;12.40;81.50;;;;;;10449486;28;20049;-64
2022/05/01 08:23:20;;;;;;;5.97;4.18;;;12.50;81.60;;;;;;10448973;28;20025;-58
2022/05/01 08:28:21;;;;;;;7.63;4.38;;;12.50;81.50;;;;;;10447602;28;20465;-57
2022/05/01 08:33:22;;;;;;;6.75;3.80;;;12.50;82.00;;;;;;10441878;28;20025;-61
2022/05/01 08:38:23;;;;;;;7.25;3.83;;;12.60;81.30;;;;;;10448384;28;20557;-62
2022/05/01 08:43:25;;;;;;;5.45;3.67;;;12.70;81.20;;;;;;10447455;28;20032;-62
2022/05/01 08:48:39;;;;;;;7.65;4.15;;;12.70;81.10;;;;;;10448539;28;20029;-64
2022/05/01 08:53:42;;;;;;;5.78;3.10;;;12.70;81.00;;;;;;10447696;28;20028;-62
2022/05/01 08:58:43;;;;;;;5.55;3.45;;;12.80;81.00;;;;;;10447046;28;20178;-60
2022/05/01 09:03:45;;;;;;;5.03;3.40;;;12.80;81.00;;;;;;10459554;28;20033;-62
2022/05/01 09:08:46;;;;;;;4.45;3.33;;;12.80;80.90;;;;;;10459793;28;20029;-64
2022/05/01 09:13:47;;;;;;;6.60;3.35;;;12.80;81.40;;;;;;10449061;28;20037;-63
2022/05/01 09:18:48;;;;;;;5.28;3.13;;;12.80;80.90;;;;;;10447096;28;20025;-63
2022/05/01 09:23:50;;;;;;;4.80;3.20;;;12.90;80.80;;;;;;10444088;28;20514;-60
2022/05/01 09:28:53;;;;;;;5.82;3.83;;;12.90;80.70;;;;;;10444967;28;20021;-62
2022/05/01 09:34:17;;;;;;;11.02;6.35;;;13.00;80.70;;;;;;10445827;28;20017;-56
2022/05/01 09:39:25;;;;;;;13.48;6.85;;;12.90;80.50;;;;;;10445151;28;20024;-57
2022/05/01 09:44:26;;;;;;;12.05;6.20;;;12.50;80.60;;;;;;10438397;28;20075;-56
2022/05/01 09:49:27;;;;;;;10.52;6.20;;;12.40;81.30;;;;;;10444055;28;20483;-56
2022/05/01 09:54:30;;;;;;;10.13;6.53;;;12.30;81.10;;;;;;10445318;28;20403;-57
2022/05/01 09:59:46;;;;;;;10.75;5.82;;;12.60;81.50;;;;;;10444447;28;20503;-56
2022/05/01 10:04:46;;;;;;;10.30;5.70;;;12.50;80.70;;;;;;10442923;28;20029;-57
2022/05/01 10:09:49;;;;;;;11.05;6.07;;;12.60;80.30;;;;;;10444258;28;20033;-58
2022/05/01 10:14:51;;;;;;;11.50;5.35;;;12.50;80.00;;;;;;10443334;28;20032;-58
2022/05/01 10:19:52;;;;;;;8.25;5.10;;;12.50;80.10;;;;;;10436168;28;20062;-56
2022/05/01 10:24:53;;;;;;;9.55;4.90;;;12.90;79.40;;;;;;10442378;28;20140;-58
2022/05/01 10:35:24;;;;;;;6.78;4.07;;;13.10;77.80;;;;;;10444618;28;20025;-58
2022/05/01 10:40:30;;;;;;;11.85;4.30;;;13.40;76.70;;;;;;10444180;28;20025;-55
2022/05/01 10:45:30;;;;;;;7.95;4.28;;;13.50;76.30;;;;;;10443449;28;20503;-57
2022/05/01 10:50:31;;;;;;;8.18;4.10;;;13.60;75.10;;;;;;10444300;28;20029;-56
2022/05/01 10:55:53;;;;;;;5.18;3.92;;;13.50;75.10;;;;;;10443850;28;20033;-56
2022/05/01 11:00:55;;;;;;;7.60;4.00;;;13.50;74.20;;;;;;10443937;28;20029;-56
2022/05/01 11:06:01;;;;;;;5.60;3.45;;;13.50;75.00;;;;;;10443633;28;20036;-61
2022/05/01 11:11:05;;;;;;;5.57;3.60;;;13.50;74.90;;;;;;10441752;28;20045;-59
2022/05/01 11:16:09;;;;;;;5.00;3.05;;;13.50;75.30;;;;;;10443409;28;20025;-60
2022/05/01 11:21:36;;;;;;;4.97;3.10;;;13.50;75.50;;;;;;10443930;28;20021;-60
2022/05/01 11:26:37;;;;;;;6.95;3.35;;;13.50;75.30;;;;;;10444466;28;20503;-59
2022/05/01 11:31:38;;;;;;;4.95;3.20;;;13.60;75.80;;;;;;10450654;28;20130;-60
2022/05/01 11:37:05;;;;;;;8.52;3.55;;;13.60;75.90;;;;;;10450891;28;20053;-61
2022/05/01 11:42:35;;;;;;;4.60;3.10;;;13.60;75.70;;;;;;10450595;28;20486;-60
2022/05/01 11:47:37;;;;;;;6.63;3.28;;;13.60;75.80;;;;;;10442427;28;20065;-60
2022/05/01 11:52:38;;;;;;;7.40;3.10;;;13.60;76.20;;;;;;10450538;28;20550;-60
2022/05/01 12:03:11;;;;;;;5.75;2.85;;;13.60;76.30;;;;;;10449718;28;20032;-58
2022/05/01 12:08:12;;;;;;;3.75;2.72;;;13.60;76.20;;;;;;10449460;28;20116;-62
2022/05/01 12:13:28;;;;;;;5.28;2.83;;;13.70;76.20;;;;;;10449074;28;20040;-55
2022/05/01 12:18:28;;;;;;;5.18;2.95;;;13.70;76.10;;;;;;10441851;28;20487;-61
2022/05/01 12:23:29;;;;;;;5.15;3.03;;;13.70;76.10;;;;;;10448576;28;20036;-59
2022/05/01 12:28:30;;;;;;;4.13;3.08;;;13.70;76.10;;;;;;10448624;28;20029;-58
2022/05/01 12:33:31;;;;;;;6.90;3.05;;;13.80;75.90;;;;;;10448321;28;20475;-60
2022/05/01 12:38:32;;;;;;;5.00;3.38;;;13.90;75.60;;;;;;10447878;28;20106;-61
2022/05/01 12:43:51;;;;;;;4.68;2.90;;;14.00;75.30;;;;;;10447863;28;20476;-59
2022/05/01 12:48:52;;;;;;;5.78;2.65;;;14.10;75.10;;;;;;10447859;28;20049;-60
2022/05/01 12:54:09;;;;;;;3.33;2.67;;;14.50;75.20;;;;;;10447707;28;20109;-60
2022/05/01 12:59:27;;;;;;;3.47;2.67;;;14.30;74.60;;;;;;10447347;28;20028;-59
2022/05/01 13:04:29;;;;;;;5.20;2.90;;;14.30;74.40;;;;;;10446965;28;20059;-60
2022/05/01 13:09:48;;;;;;;4.95;2.47;;;14.30;74.60;;;;;;10446727;28;20644;-60
2022/05/01 13:14:58;;;;;;;4.30;2.67;;;14.30;74.60;;;;;;10445443;28;20419;-60
2022/05/01 13:19:59;;;;;;;3.65;2.80;;;14.30;74.70;;;;;;10446388;28;20033;-59
2022/05/01 13:25:01;;;;;;;3.88;2.60;;;14.30;74.90;;;;;;10445990;28;20037;-58
2022/05/01 13:30:02;;;;;;;3.88;2.60;;;14.30;75.00;;;;;;10446100;28;20060;-61
2022/05/01 13:35:03;;;;;;;3.92;2.63;;;14.30;75.10;;;;;;10446255;28;20195;-59
2022/05/01 13:45:23;;;;;;;3.22;2.63;;;14.30;75.30;;;;;;10443920;28;20037;-59
2022/05/01 13:50:25;;;;;;;3.58;2.50;;;14.30;75.50;;;;;;10444825;28;20060;-59
2022/05/01 13:55:26;;;;;;;3.88;2.65;;;14.30;75.60;;;;;;10446083;28;20021;-60
2022/05/01 14:00:27;;;;;;;2.90;2.25;;;14.30;75.70;;;;;;10445944;28;20518;-60
2022/05/01 14:05:28;;;;;;;3.63;2.40;;;14.30;75.70;;;;;;10449020;28;20480;-59
2022/05/01 14:10:29;;;;;;;3.83;2.60;;;14.30;75.80;;;;;;10443610;28;20053;-58
2022/05/01 14:15:29;;;;;;;4.25;2.30;;;14.40;75.90;;;;;;10443441;28;20025;-60
2022/05/01 14:20:31;;;;;;;3.35;2.30;;;14.40;76.00;;;;;;10443083;28;20453;-59
2022/05/01 14:25:32;;;;;;;3.05;2.47;;;14.40;76.10;;;;;;10439284;28;20045;-60
2022/05/01 14:30:39;;;;;;;2.78;2.15;;;14.50;75.90;;;;;;10442353;28;20040;-59
2022/05/01 14:35:47;;;;;;;3.10;2.60;;;14.70;75.50;;;;;;10423043;28;20059;-59
2022/05/01 14:40:48;;;;;;;4.22;2.58;;;14.80;75.00;;;;;;10442940;28;20032;-60
2022/05/01 14:45:59;;;;;;;3.13;2.33;;;14.90;74.90;;;;;;10442482;28;20500;-61
2022/05/01 14:51:01;;;;;;;2.95;2.20;;;14.90;74.90;;;;;;10444166;28;20120;-58
2022/05/01 14:56:04;;;;;;;2.88;2.40;;;14.90;75.00;;;;;;10443829;28;20495;-60
2022/05/01 15:06:26;;;;;;;3.75;2.53;;;14.90;75.30;;;;;;10449652;28;20029;-60
2022/05/01 15:11:26;;;;;;;4.05;2.20;;;14.90;75.50;;;;;;10451668;28;20573;-61
2022/05/01 15:16:31;;;;;;;2.75;2.15;;;14.80;75.50;;;;;;10450821;28;20033;-60
2022/05/01 15:27:13;;;;;;;2.43;2.10;;;14.80;73.40;;;;;;10449944;28;20085;-64
2022/05/01 15:32:22;;;;;;;4.85;2.70;;;14.80;74.20;;;;;;10450984;28;20649;-60
2022/05/01 15:37:37;;;;;;;5.55;2.80;;;14.80;74.20;;;;;;10450589;28;20029;-60
2022/05/01 15:42:43;;;;;;;4.47;2.10;;;14.80;73.50;;;;;;10450595;28;20053;-59
2022/05/01 15:47:45;;;;;;;5.95;2.70;;;14.80;73.80;;;;;;10450438;28;20778;-59
2022/05/01 15:58:07;;;;;;;8.05;2.78;;;14.80;73.20;;;;;;10449575;28;20106;-59
2022/05/01 16:03:08;;;;;;;3.75;2.55;;;14.70;73.20;;;;;;10449578;28;20112;-59
2022/05/01 16:08:31;;;;;;;4.57;2.33;;;14.70;73.40;;;;;;10449724;28;20067;-58
2022/05/01 16:13:59;;;;;;;6.43;2.33;;;14.70;71.80;;;;;;10447665;28;20041;-60
2022/05/01 16:19:20;;;;;;;5.63;2.63;;;14.70;72.70;;;;;;10446516;28;20021;-54
2022/05/01 16:24:29;;;;;;;4.68;2.75;;;14.80;73.40;;;;;;10447487;28;20512;-61
2022/05/01 16:29:58;;;;;;;4.72;2.70;;;14.80;73.70;;;;;;10446299;28;20070;-64
2022/05/01 16:34:58;;;;;;;7.45;2.63;;;14.80;73.80;;;;;;10443681;28;20049;-58
2022/05/01 16:40:01;;;;;;;4.28;2.10;;;14.70;74.00;;;;;;10448565;28;20056;-57
2022/05/01 16:45:03;;;;;;;6.55;2.53;;;14.70;74.30;;;;;;10447518;28;20037;-62
2022/05/01 16:50:06;;;;;;;5.55;2.45;;;14.70;74.40;;;;;;10446346;28;20033;-57
2022/05/01 16:55:08;;;;;;;5.82;2.40;;;14.70;74.50;;;;;;10446445;28;20121;-60
2022/05/01 17:00:12;;;;;;;5.25;2.25;;;14.70;74.60;;;;;;10435520;28;20036;-57
2022/05/01 17:05:31;;;;;;;3.67;2.38;;;14.70;74.70;;;;;;10445893;28;20033;-57
2022/05/01 17:10:42;;;;;;;4.68;2.22;;;14.70;74.80;;;;;;10445317;28;20067;-57
2022/05/01 17:15:44;;;;;;;5.95;2.30;;;14.70;74.90;;;;;;10445715;28;20017;-58
2022/05/01 17:21:19;;;;;;;5.63;2.67;;;14.70;75.10;;;;;;10444787;28;20040;-58
2022/05/01 17:26:57;;;;;;;3.47;2.72;;;14.60;74.20;;;;;;10422186;28;20048;-58
2022/05/01 17:32:02;;;;;;;4.75;2.40;;;14.70;75.10;;;;;;10441789;28;20041;-55
2022/05/01 17:37:06;;;;;;;5.05;2.67;;;14.60;75.10;;;;;;10442962;28;20021;-56
2022/05/01 17:42:08;;;;;;;4.45;2.30;;;14.60;75.30;;;;;;10444525;28;20025;-56
2022/05/01 17:47:10;;;;;;;4.75;2.65;;;14.60;75.40;;;;;;10435576;28;20037;-60
2022/05/01 17:52:15;;;;;;;3.15;2.47;;;14.60;75.60;;;;;;10424900;28;20021;-62
2022/05/01 17:57:16;;;;;;;3.58;2.60;;;14.60;75.60;;;;;;10428996;28;20021;-63
2022/05/01 18:02:32;;;;;;;3.97;2.63;;;14.60;75.70;;;;;;10418092;28;20021;-64
2022/05/01 18:13:32;;;;;;;4.85;2.53;;;14.50;75.90;;;;;;10425376;28;20429;-63
2022/05/01 18:18:39;;;;;;;3.25;2.55;;;14.50;76.20;;;;;;10418975;28;20044;-64
2022/05/01 18:24:05;;;;;;;3.13;2.70;;;14.40;76.30;;;;;;10422803;28;20537;-66
2022/05/01 18:35:10;;;;;;;3.30;2.50;;;14.40;76.40;;;;;;10423260;28;20033;-57
2022/05/01 18:40:14;;;;;;;3.67;2.72;;;14.40;76.40;;;;;;10439582;28;20407;-66
2022/05/01 18:45:16;;;;;;;4.38;2.60;;;14.30;76.40;;;;;;10446625;28;20403;-59
2022/05/01 18:50:21;;;;;;;4.93;2.65;;;14.30;77.00;;;;;;10449374;28;20047;-64
2022/05/01 18:55:23;;;;;;;5.15;2.72;;;14.30;76.40;;;;;;10446322;28;20029;-65
2022/05/01 19:00:24;;;;;;;5.93;2.80;;;14.30;76.40;;;;;;10432594;28;20041;-65
2022/05/01 19:05:26;;;;;;;5.40;2.80;;;14.30;76.50;;;;;;10428919;28;20569;-69
2022/05/01 19:10:44;;;;;;;3.15;2.63;;;14.30;76.60;;;;;;10421155;28;20107;-61
2022/05/01 19:15:51;;;;;;;;;;;14.20;76.70;;;;;;10429209;28;20041;-60
2022/05/01 19:21:07;;;;;;;6.88;3.55;;;14.20;76.90;;;;;;10439081;28;19909;-63
2022/05/01 19:26:21;;;;;;;4.03;2.50;;;14.20;76.90;;;;;;10427856;28;20033;-67
2022/05/01 19:31:54;;;;;;;5.05;3.00;;;14.10;77.00;;;;;;10418459;28;20102;-66
2022/05/01 19:36:58;;;;;;;4.15;2.80;;;14.10;77.70;;;;;;10401258;28;20033;-61
2022/05/01 19:42:36;;;;;;;8.52;3.65;;;14.00;77.20;;;;;;10415021;28;20033;-62
2022/05/01 19:53:24;;;;;;;6.47;3.13;;;14.00;77.60;;;;;;10421054;28;20029;-66
2022/05/01 19:58:25;;;;;;;4.88;3.22;;;13.90;77.60;;;;;;10429233;28;20028;-57
2022/05/01 20:03:27;;;;;;;3.58;2.80;;;13.90;77.70;;;;;;10426531;28;20038;-60
2022/05/01 20:08:27;;;;;;;4.90;3.15;;;13.90;77.80;;;;;;10416589;28;21500;-62
2022/05/01 20:13:28;;;;;;;4.40;2.83;;;13.90;77.90;;;;;;10421903;28;20127;-63
2022/05/01 20:19:01;;;;;;;4.25;3.13;;;13.80;77.90;;;;;;10421606;28;20030;-63
2022/05/01 20:24:11;;;;;;;3.78;2.90;;;13.80;78.00;;;;;;10409024;28;20053;-63
2022/05/01 20:29:19;;;;;;;5.07;3.08;;;13.80;78.10;;;;;;10416935;28;20041;-63
2022/05/01 20:34:20;;;;;;;3.67;3.13;;;13.80;78.20;;;;;;10411860;28;20045;-63
2022/05/01 20:39:24;;;;;;;4.35;3.17;;;13.70;78.10;;;;;;10415528;28;20128;-62
2022/05/01 20:44:49;;;;;;;4.10;2.80;;;13.70;78.20;;;;;;10423797;28;20028;-62
2022/05/01 20:50:11;;;;;;;6.38;3.00;;;13.70;78.20;;;;;;10430941;28;20147;-62
2022/05/01 20:55:17;;;;;;;5.70;3.42;;;13.70;78.20;;;;;;10423557;28;20037;-64
2022/05/01 21:00:17;;;;;;;5.18;3.03;;;13.60;78.20;;;;;;10441891;28;20055;-64
2022/05/01 21:05:20;;;;;;;4.85;3.25;;;13.60;78.20;;;;;;10423035;28;20577;-64
2022/05/01 21:10:27;;;;;;;5.30;2.92;;;13.60;78.30;;;;;;10423311;28;20504;-63
2022/05/01 21:15:28;;;;;;;4.55;2.90;;;13.60;78.50;;;;;;10419852;28;20599;-64
2022/05/01 21:20:29;;;;;;;4.05;3.03;;;13.50;78.50;;;;;;10420704;28;20519;-60
2022/05/01 21:25:30;;;;;;;4.47;3.00;;;13.50;78.50;;;;;;10417511;28;20037;-64
2022/05/01 21:35:50;;;;;;;3.90;2.83;;;13.50;78.60;;;;;;10415459;28;20035;-62
2022/05/01 21:40:51;;;;;;;5.22;3.20;;;13.40;78.50;;;;;;10418003;28;20013;-59
2022/05/01 21:45:52;;;;;;;5.32;2.80;;;13.40;78.50;;;;;;10444771;28;20476;-63
2022/05/01 21:50:52;;;;;;;5.68;3.47;;;13.40;78.60;;;;;;10426406;28;20029;-61
2022/05/01 21:55:53;;;;;;;5.05;3.17;;;13.40;78.60;;;;;;10444692;28;20395;-60
2022/05/01 22:00:54;;;;;;;4.60;3.15;;;13.30;78.60;;;;;;10444293;28;20115;-61
2022/05/01 22:05:57;;;;;;;7.45;3.47;;;13.30;78.60;;;;;;10444455;28;20491;-62
2022/05/01 22:10:58;;;;;;;5.30;3.22;;;13.30;78.70;;;;;;10443633;28;20578;-62
2022/05/01 22:15:59;;;;;;;4.57;3.05;;;13.20;78.70;;;;;;10445050;28;20065;-57
2022/05/01 22:21:00;;;;;;;5.05;3.13;;;13.30;78.80;;;;;;10443441;28;20124;-62
2022/05/01 22:26:01;;;;;;;7.10;3.45;;;13.20;78.80;;;;;;10442374;28;20056;-62
2022/05/01 22:31:02;;;;;;;5.15;3.55;;;13.20;79.50;;;;;;10442829;28;20079;-61
2022/05/01 22:41:23;;;;;;;5.72;3.15;;;13.10;79.00;;;;;;10442279;28;20029;-60
2022/05/01 22:46:24;;;;;;;7.30;3.22;;;13.10;79.20;;;;;;10442489;28;20041;-61
2022/05/01 22:51:25;;;;;;;5.40;3.30;;;13.10;79.30;;;;;;10442300;28;20434;-57
2022/05/01 22:56:26;;;;;;;8.13;3.33;;;13.10;79.30;;;;;;10442628;28;20021;-62
2022/05/01 23:01:26;;;;;;;5.15;3.30;;;13.00;79.40;;;;;;10443729;28;20040;-62
2022/05/01 23:06:27;;;;;;;4.28;3.10;;;13.00;79.40;;;;;;10443522;28;20537;-59
2022/05/01 23:11:28;;;;;;;5.75;2.97;;;13.00;79.50;;;;;;10443714;28;20045;-64
2022/05/01 23:16:29;;;;;;;5.03;3.42;;;13.00;79.90;;;;;;10443480;28;20393;-60
2022/05/01 23:21:29;;;;;;;6.65;3.22;;;12.90;79.60;;;;;;10448715;28;20044;-64
2022/05/01 23:26:30;;;;;;;8.18;3.28;;;12.90;79.60;;;;;;10452779;28;20045;-62
2022/05/01 23:31:31;;;;;;;4.97;3.53;;;12.90;79.70;;;;;;10454700;28;20025;-63
2022/05/01 23:36:32;;;;;;;5.80;3.50;;;12.80;79.70;;;;;;10451264;28;20035;-61
2022/05/01 23:41:32;;;;;;;5.18;3.33;;;12.80;79.70;;;;;;10450642;28;20029;-63
2022/05/01 23:46:33;;;;;;;4.63;2.80;;;12.80;79.80;;;;;;10450272;28;20037;-62
2022/05/01 23:51:34;;;;;;;4.15;3.10;;;12.70;79.80;;;;;;10450035;28;20052;-63
2022/05/01 23:56:35;;;;;;;5.20;3.15;;;12.70;79.80;;;;;;10450212;28;20056;-62
